createdAt,value
2022-10-19T00:00:05.739Z,86.20
2022-10-19T00:02:36.712Z,86.20
2022-10-19T00:05:04.907Z,86.20
2022-10-19T00:07:33.094Z,86.20
2022-10-19T00:10:01.188Z,86.20
2022-10-19T00:12:29.159Z,86.20
2022-10-19T00:14:58.750Z,86.20
2022-10-19T00:17:26.777Z,86.20
2022-10-19T00:19:54.715Z,86.20
2022-10-19T00:22:22.629Z,86.20
2022-10-19T00:24:50.564Z,86.30
2022-10-19T00:27:18.874Z,86.20
2022-10-19T00:29:46.747Z,86.20
2022-10-19T00:32:15.988Z,86.20
2022-10-19T00:34:44.020Z,86.30
2022-10-19T00:37:12.056Z,86.30
2022-10-19T00:39:40.379Z,86.30
2022-10-19T00:42:11.617Z,86.20
2022-10-19T00:45:15.520Z,86.10
2022-10-19T00:47:46.133Z,86.20
2022-10-19T00:50:17.280Z,86.40
2022-10-19T00:52:45.287Z,86.30
2022-10-19T00:55:13.931Z,86.30
2022-10-19T00:57:42.242Z,86.30
2022-10-19T01:00:10.933Z,86.30
2022-10-19T01:02:39.077Z,86.40
2022-10-19T01:05:09.756Z,86.40
2022-10-19T01:07:37.717Z,86.30
2022-10-19T01:10:06.754Z,86.20
2022-10-19T01:12:58.687Z,86.30
2022-10-19T01:15:38.593Z,86.30
2022-10-19T01:18:13.346Z,86.20
2022-10-19T01:21:17.425Z,86.20
2022-10-19T01:24:12.142Z,86.20
2022-10-19T01:27:07.220Z,86.20
2022-10-19T01:30:05.589Z,86.20
2022-10-19T01:32:43.227Z,86.20
2022-10-19T01:35:14.868Z,86.00
2022-10-19T01:37:50.661Z,86.10
2022-10-19T01:40:25.932Z,86.10
2022-10-19T01:43:03.655Z,86.20
2022-10-19T01:45:39.624Z,86.20
2022-10-19T01:48:13.314Z,86.20
2022-10-19T01:50:46.822Z,86.10
2022-10-19T01:53:18.263Z,86.30
2022-10-19T01:55:48.751Z,86.30
2022-10-19T01:58:22.287Z,86.20
2022-10-19T02:00:53.576Z,86.20
2022-10-19T02:03:24.271Z,86.10
2022-10-19T02:05:54.000Z,86.20
2022-10-19T02:08:27.520Z,86.20
2022-10-19T02:10:56.923Z,86.30
2022-10-19T02:13:25.747Z,86.20
2022-10-19T02:15:57.409Z,86.30
2022-10-19T02:18:32.409Z,86.30
2022-10-19T02:21:02.173Z,86.40
2022-10-19T02:23:30.167Z,86.30
2022-10-19T02:25:58.796Z,86.30
2022-10-19T02:28:29.050Z,86.30
2022-10-19T02:30:57.943Z,86.20
2022-10-19T02:33:28.403Z,86.20
2022-10-19T02:35:56.785Z,86.10
2022-10-19T02:38:25.819Z,86.10
2022-10-19T02:41:00.916Z,86.00
2022-10-19T02:43:30.993Z,86.10
2022-10-19T02:46:02.764Z,86.10
2022-10-19T02:48:34.199Z,86.10
2022-10-19T02:51:02.161Z,86.00
2022-10-19T02:53:30.183Z,86.00
2022-10-19T02:55:58.234Z,86.00
2022-10-19T02:58:26.259Z,85.90
2022-10-19T03:00:54.351Z,85.90
2022-10-19T03:03:22.327Z,85.80
2022-10-19T03:05:52.200Z,85.80
2022-10-19T03:08:20.207Z,85.80
2022-10-19T03:10:48.175Z,85.80
2022-10-19T03:13:16.145Z,85.80
2022-10-19T03:15:44.105Z,85.80
2022-10-19T03:18:12.051Z,85.80
2022-10-19T03:20:39.993Z,85.70
2022-10-19T03:23:09.248Z,85.70
2022-10-19T03:25:37.237Z,85.70
2022-10-19T03:28:05.244Z,85.70
2022-10-19T03:30:33.148Z,85.70
2022-10-19T03:33:01.052Z,85.70
2022-10-19T03:35:28.995Z,85.70
2022-10-19T03:37:56.903Z,85.70
2022-10-19T03:40:26.346Z,85.70
2022-10-19T03:42:54.397Z,85.70
2022-10-19T03:45:22.318Z,85.70
2022-10-19T03:47:50.743Z,85.70
2022-10-19T03:50:20.539Z,85.60
2022-10-19T03:52:49.799Z,85.60
2022-10-19T03:55:18.156Z,85.60
2022-10-19T03:57:47.444Z,85.60
2022-10-19T04:00:16.160Z,85.60
2022-10-19T04:02:44.011Z,85.50
2022-10-19T04:05:11.951Z,85.50
2022-10-19T04:07:39.865Z,85.50
2022-10-19T04:10:08.694Z,85.50
2022-10-19T04:12:36.612Z,85.50
2022-10-19T04:15:06.543Z,85.50
2022-10-19T04:17:34.832Z,85.50
2022-10-19T04:20:02.946Z,85.50
2022-10-19T04:22:30.861Z,85.60
2022-10-19T04:24:58.773Z,85.60
2022-10-19T04:27:26.685Z,85.60
2022-10-19T04:29:54.605Z,85.50
2022-10-19T04:32:23.916Z,85.50
2022-10-19T04:34:51.799Z,85.50
2022-10-19T04:37:19.720Z,85.50
2022-10-19T04:39:47.668Z,85.40
2022-10-19T04:42:15.607Z,85.40
2022-10-19T04:44:43.510Z,85.30
2022-10-19T04:47:11.554Z,85.20
2022-10-19T04:49:40.823Z,85.30
2022-10-19T04:52:08.759Z,85.30
2022-10-19T04:54:36.684Z,85.10
2022-10-19T04:57:05.173Z,85.00
2022-10-19T04:59:33.237Z,85.00
2022-10-19T05:02:01.137Z,85.20
2022-10-19T05:04:29.058Z,85.30
2022-10-19T05:06:58.316Z,85.40
2022-10-19T05:09:26.607Z,85.40
2022-10-19T05:11:54.570Z,85.30
2022-10-19T05:14:22.744Z,85.30
2022-10-19T05:16:50.685Z,85.40
2022-10-19T05:19:18.984Z,85.30
2022-10-19T05:21:47.019Z,85.30
2022-10-19T05:24:16.395Z,85.30
2022-10-19T05:26:44.406Z,85.30
2022-10-19T05:29:13.558Z,85.30
2022-10-19T05:31:41.977Z,85.30
2022-10-19T05:34:09.924Z,85.30
2022-10-19T05:36:40.098Z,85.30
2022-10-19T05:39:09.757Z,85.30
2022-10-19T05:41:39.082Z,85.30
2022-10-19T05:44:07.563Z,85.30
2022-10-19T05:46:35.683Z,85.20
2022-10-19T05:49:03.596Z,85.20
2022-10-19T05:51:31.577Z,85.20
2022-10-19T05:53:59.516Z,85.20
2022-10-19T05:56:29.389Z,85.20
2022-10-19T05:59:00.746Z,85.20
2022-10-19T06:01:29.970Z,85.20
2022-10-19T06:04:00.423Z,85.20
2022-10-19T06:06:29.116Z,85.10
2022-10-19T06:08:58.944Z,85.00
2022-10-19T06:11:28.768Z,84.90
2022-10-19T06:14:00.789Z,84.90
2022-10-19T06:16:29.868Z,85.10
2022-10-19T06:18:58.544Z,85.10
2022-10-19T06:21:28.249Z,85.40
2022-10-19T06:23:57.724Z,85.40
2022-10-19T06:26:26.738Z,85.50
2022-10-19T06:29:00.389Z,85.60
2022-10-19T06:31:29.041Z,85.60
2022-10-19T06:33:57.163Z,85.70
2022-10-19T06:36:26.970Z,85.70
2022-10-19T06:38:56.488Z,85.80
2022-10-19T06:41:24.790Z,85.80
2022-10-19T06:43:54.083Z,85.90
2022-10-19T06:46:25.312Z,86.00
2022-10-19T06:48:55.129Z,86.20
2022-10-19T06:51:24.478Z,86.20
2022-10-19T06:53:56.629Z,86.30
2022-10-19T06:56:26.311Z,86.40
2022-10-19T06:58:54.920Z,86.50
2022-10-19T07:01:24.604Z,86.70
2022-10-19T07:03:53.680Z,86.80
2022-10-19T07:06:21.973Z,86.80
2022-10-19T07:08:49.977Z,86.90
2022-10-19T07:11:20.288Z,86.90
2022-10-19T07:13:48.187Z,86.90
2022-10-19T07:16:20.917Z,87.00
2022-10-19T07:18:52.480Z,87.10
2022-10-19T07:21:22.428Z,87.20
2022-10-19T07:23:50.388Z,87.20
2022-10-19T07:26:21.371Z,87.20
2022-10-19T07:28:50.200Z,87.20
2022-10-19T07:31:21.158Z,87.30
2022-10-19T07:33:53.142Z,87.30
2022-10-19T07:36:21.106Z,87.50
2022-10-19T07:38:49.045Z,87.50
2022-10-19T07:41:18.492Z,87.80
2022-10-19T07:43:48.317Z,87.80
2022-10-19T07:46:18.163Z,87.80
2022-10-19T07:48:46.558Z,87.80
2022-10-19T07:51:18.323Z,87.90
2022-10-19T07:53:47.229Z,87.90
2022-10-19T07:56:16.946Z,88.10
2022-10-19T07:58:45.306Z,88.10
2022-10-19T08:01:14.714Z,88.00
2022-10-19T08:06:32.733Z,88.20
2022-10-19T08:09:00.863Z,88.20
2022-10-19T08:11:32.473Z,88.20
2022-10-19T08:14:02.652Z,88.20
2022-10-19T08:16:33.658Z,88.10
2022-10-19T08:19:04.288Z,88.20
2022-10-19T08:21:33.945Z,88.20
2022-10-19T08:24:02.128Z,88.20
2022-10-19T08:26:30.887Z,88.30
2022-10-19T08:29:02.025Z,88.20
2022-10-19T08:31:29.969Z,88.40
2022-10-19T08:33:58.284Z,88.40
2022-10-19T08:36:27.563Z,88.40
2022-10-19T08:38:56.823Z,88.40
2022-10-19T08:41:33.056Z,88.40
2022-10-19T08:44:24.828Z,88.30
2022-10-19T08:47:02.540Z,88.50
2022-10-19T08:49:32.775Z,88.60
2022-10-19T08:52:03.832Z,88.50
2022-10-19T08:54:44.303Z,88.60
2022-10-19T08:57:25.014Z,88.50
2022-10-19T08:59:59.806Z,88.40
2022-10-19T09:02:41.921Z,88.50
2022-10-19T09:05:17.482Z,88.70
2022-10-19T09:07:54.830Z,88.70
2022-10-19T09:10:28.248Z,88.80
2022-10-19T09:13:00.197Z,88.80
2022-10-19T09:15:34.175Z,88.80
2022-10-19T09:18:02.442Z,88.70
2022-10-19T09:20:35.648Z,88.60
2022-10-19T09:23:11.115Z,88.50
2022-10-19T09:25:42.686Z,88.60
2022-10-19T09:28:31.398Z,88.70
2022-10-19T09:31:05.338Z,88.70
2022-10-19T09:33:36.958Z,88.60
2022-10-19T09:36:07.532Z,88.60
2022-10-19T09:38:35.642Z,88.70
2022-10-19T09:41:18.654Z,88.80
2022-10-19T09:43:53.009Z,88.80
2022-10-19T09:46:31.703Z,88.90
2022-10-19T09:49:02.405Z,88.70
2022-10-19T09:51:41.809Z,88.70
2022-10-19T09:54:27.481Z,88.70
2022-10-19T09:56:57.796Z,88.70
2022-10-19T09:59:30.888Z,88.70
2022-10-19T10:02:16.391Z,88.70
2022-10-19T10:04:47.959Z,88.70
2022-10-19T10:07:18.890Z,88.80
2022-10-19T10:09:47.265Z,88.80
2022-10-19T10:12:17.236Z,88.80
2022-10-19T10:14:45.851Z,88.80
2022-10-19T10:17:17.719Z,88.80
2022-10-19T10:20:03.896Z,88.80
2022-10-19T10:22:33.936Z,88.70
2022-10-19T10:25:03.114Z,88.70
2022-10-19T10:27:36.311Z,88.70
2022-10-19T10:30:09.203Z,88.70
2022-10-19T10:32:42.205Z,88.80
2022-10-19T10:35:20.505Z,88.80
2022-10-19T10:37:49.057Z,88.80
2022-10-19T10:40:23.763Z,88.70
2022-10-19T10:42:55.363Z,88.60
2022-10-19T10:45:27.201Z,88.50
2022-10-19T10:47:55.464Z,88.60
2022-10-19T10:50:25.863Z,88.40
2022-10-19T10:53:02.487Z,88.40
2022-10-19T10:55:31.817Z,88.40
2022-10-19T10:58:18.529Z,88.50
2022-10-19T11:00:47.731Z,88.40
2022-10-19T11:03:22.903Z,88.50
2022-10-19T11:05:55.402Z,88.60
2022-10-19T11:08:28.519Z,88.50
2022-10-19T11:11:01.769Z,88.70
2022-10-19T11:13:38.675Z,88.50
2022-10-19T11:16:13.541Z,88.50
2022-10-19T11:18:45.429Z,88.70
2022-10-19T11:21:18.171Z,88.60
2022-10-19T11:23:56.133Z,88.60
2022-10-19T11:26:42.331Z,88.40
2022-10-19T11:29:26.340Z,88.50
2022-10-19T11:31:56.277Z,88.50
2022-10-19T11:34:45.776Z,88.60
2022-10-19T11:37:24.976Z,88.40
2022-10-19T11:40:05.325Z,88.20
2022-10-19T11:42:50.600Z,88.10
2022-10-19T11:45:32.889Z,88.10
2022-10-19T11:48:16.475Z,88.30
2022-10-19T11:50:54.236Z,88.20
2022-10-19T11:53:35.269Z,88.20
2022-10-19T11:56:09.750Z,88.30
2022-10-19T11:59:01.725Z,88.30
2022-10-19T12:01:48.424Z,88.40
2022-10-19T12:04:43.831Z,88.30
2022-10-19T12:07:33.824Z,88.30
2022-10-19T12:10:08.421Z,88.40
2022-10-19T12:12:39.627Z,88.30
2022-10-19T12:15:26.161Z,88.30
2022-10-19T12:18:00.532Z,88.20
2022-10-19T12:20:33.482Z,88.10
2022-10-19T12:23:15.572Z,88.20
2022-10-19T12:25:46.372Z,88.20
2022-10-19T12:28:22.462Z,88.10
2022-10-19T12:30:50.869Z,88.20
2022-10-19T12:33:24.442Z,88.00
2022-10-19T12:36:00.734Z,88.10
2022-10-19T12:38:40.961Z,88.10
2022-10-19T12:41:23.320Z,88.10
2022-10-19T12:44:04.104Z,88.10
2022-10-19T12:46:39.639Z,88.10
2022-10-19T12:49:38.398Z,87.90
2022-10-19T12:52:08.238Z,87.80
2022-10-19T12:54:38.789Z,87.80
2022-10-19T12:57:28.441Z,87.90
2022-10-19T13:00:01.610Z,87.70
2022-10-19T13:05:03.152Z,87.90
2022-10-19T13:07:34.368Z,87.70
2022-10-19T13:10:05.355Z,87.70
2022-10-19T13:12:45.861Z,87.70
2022-10-19T13:15:57.401Z,87.70
2022-10-19T13:19:08.293Z,87.70
2022-10-19T13:21:49.319Z,87.40
2022-10-19T13:24:35.806Z,87.50
2022-10-19T13:27:38.847Z,87.50
2022-10-19T13:30:56.894Z,87.60
2022-10-19T13:33:47.900Z,87.60
2022-10-19T13:36:16.240Z,87.70
2022-10-19T13:38:47.290Z,87.80
2022-10-19T13:41:21.857Z,87.70
2022-10-19T13:44:04.746Z,87.70
2022-10-19T13:46:54.550Z,87.60
2022-10-19T13:49:49.804Z,87.50
2022-10-19T13:52:43.509Z,87.30
2022-10-19T13:56:03.436Z,87.40
2022-10-19T13:59:08.281Z,87.40
2022-10-19T14:01:51.088Z,87.30
2022-10-19T14:04:31.363Z,87.60
2022-10-19T14:07:06.370Z,87.40
2022-10-19T14:10:00.141Z,87.30
2022-10-19T14:12:31.355Z,87.30
2022-10-19T14:15:00.360Z,87.40
2022-10-19T14:17:33.894Z,87.20
2022-10-19T14:20:03.993Z,87.20
2022-10-19T14:22:33.995Z,87.10
2022-10-19T14:25:04.487Z,87.20
2022-10-19T14:27:35.702Z,87.10
2022-10-19T14:30:05.187Z,87.20
2022-10-19T14:32:35.004Z,87.00
2022-10-19T14:35:07.533Z,87.10
2022-10-19T14:37:37.442Z,87.00
2022-10-19T14:40:09.171Z,87.00
2022-10-19T14:42:44.302Z,86.90
2022-10-19T14:45:18.348Z,86.80
2022-10-19T14:48:01.070Z,86.80
2022-10-19T14:50:40.491Z,86.80
2022-10-19T14:53:22.506Z,86.80
2022-10-19T14:55:53.121Z,86.90
2022-10-19T14:58:25.363Z,86.80
2022-10-19T15:00:54.799Z,86.70
2022-10-19T15:03:26.473Z,86.60
2022-10-19T15:05:57.700Z,86.70
2022-10-19T15:08:33.747Z,86.60
2022-10-19T15:11:01.964Z,86.40
2022-10-19T15:13:34.590Z,86.10
2022-10-19T15:16:02.695Z,86.30
2022-10-19T15:18:49.594Z,86.40
2022-10-19T15:21:20.895Z,86.50
2022-10-19T15:23:50.209Z,86.50
2022-10-19T15:26:21.346Z,86.50
2022-10-19T15:28:50.730Z,86.30
2022-10-19T15:31:20.795Z,86.20
2022-10-19T15:33:51.262Z,86.10
2022-10-19T15:36:20.861Z,86.00
2022-10-19T15:38:50.751Z,85.90
2022-10-19T15:41:28.168Z,85.80
2022-10-19T15:43:59.811Z,85.70
2022-10-19T15:46:32.090Z,85.60
2022-10-19T15:49:01.974Z,85.50
2022-10-19T15:51:53.926Z,85.60
2022-10-19T15:54:23.800Z,85.60
2022-10-19T15:56:54.287Z,85.50
2022-10-19T15:59:24.181Z,85.40
2022-10-19T16:01:54.953Z,85.40
2022-10-19T16:04:23.985Z,85.40
2022-10-19T16:06:52.046Z,85.30
2022-10-19T16:09:22.377Z,85.00
2022-10-19T16:11:56.304Z,85.00
2022-10-19T16:14:26.286Z,85.10
2022-10-19T16:16:54.458Z,85.10
2022-10-19T16:19:22.328Z,85.00
2022-10-19T16:21:50.561Z,84.90
2022-10-19T16:24:18.485Z,84.90
2022-10-19T16:26:46.381Z,85.00
2022-10-19T16:29:14.332Z,84.90
2022-10-19T16:31:43.566Z,84.90
2022-10-19T16:34:11.499Z,84.70
2022-10-19T16:36:39.394Z,84.70
2022-10-19T16:39:07.401Z,84.70
2022-10-19T16:44:12.085Z,84.60
2022-10-19T16:46:40.308Z,84.40
2022-10-19T16:49:09.642Z,84.40
2022-10-19T16:51:38.440Z,84.30
2022-10-19T16:54:07.962Z,84.20
2022-10-19T16:56:36.773Z,84.10
2022-10-19T16:59:06.661Z,84.00
2022-10-19T17:01:35.914Z,84.00
2022-10-19T17:04:03.917Z,84.00
2022-10-19T17:06:34.850Z,84.00
2022-10-19T17:11:51.266Z,83.80
2022-10-19T17:14:19.570Z,83.60
2022-10-19T17:16:47.610Z,83.60
2022-10-19T17:19:15.649Z,83.70
2022-10-19T17:21:45.024Z,83.60
2022-10-19T17:24:21.163Z,83.40
2022-10-19T17:26:51.016Z,83.40
2022-10-19T17:29:19.787Z,83.50
2022-10-19T17:31:48.073Z,83.50
2022-10-19T17:34:16.371Z,83.50
2022-10-19T17:36:46.800Z,83.40
2022-10-19T17:39:17.895Z,83.30
2022-10-19T17:41:46.830Z,83.20
2022-10-19T17:44:15.089Z,83.10
2022-10-19T17:46:43.280Z,82.90
2022-10-19T17:49:11.507Z,82.80
2022-10-19T17:51:40.307Z,82.90
2022-10-19T17:54:11.851Z,82.90
2022-10-19T17:56:40.032Z,83.00
2022-10-19T17:59:09.266Z,82.80
2022-10-19T18:01:37.965Z,82.80
2022-10-19T18:04:06.205Z,82.80
2022-10-19T18:06:35.885Z,83.00
2022-10-19T18:09:06.642Z,82.90
2022-10-19T18:11:38.561Z,82.90
2022-10-19T18:14:08.856Z,82.80
2022-10-19T18:16:39.512Z,82.90
2022-10-19T18:19:08.976Z,82.80
2022-10-19T18:21:39.502Z,82.70
2022-10-19T18:24:12.816Z,82.60
2022-10-19T18:26:44.725Z,82.50
2022-10-19T18:29:14.542Z,82.40
2022-10-19T18:31:44.601Z,82.30
2022-10-19T18:34:15.379Z,82.20
2022-10-19T18:36:44.040Z,82.20
2022-10-19T18:39:14.217Z,82.10
2022-10-19T18:41:42.499Z,82.10
2022-10-19T18:44:13.966Z,82.00
2022-10-19T18:46:42.153Z,82.00
2022-10-19T18:49:12.466Z,82.10
2022-10-19T18:51:40.761Z,81.90
2022-10-19T18:54:09.178Z,81.90
2022-10-19T18:56:37.377Z,81.90
2022-10-19T18:59:06.143Z,81.70
2022-10-19T19:01:35.505Z,81.70
2022-10-19T19:04:09.079Z,81.60
2022-10-19T19:06:38.631Z,81.60
2022-10-19T19:09:08.680Z,81.60
2022-10-19T19:11:39.164Z,81.60
2022-10-19T19:14:09.440Z,81.60
2022-10-19T19:16:40.629Z,81.60
2022-10-19T19:19:09.603Z,81.50
2022-10-19T19:21:38.325Z,81.50
2022-10-19T19:24:08.110Z,81.40
2022-10-19T19:26:39.484Z,81.40
2022-10-19T19:29:09.613Z,81.40
2022-10-19T19:31:39.612Z,81.30
2022-10-19T19:34:09.327Z,81.20
2022-10-19T19:36:38.170Z,81.10
2022-10-19T19:39:06.425Z,81.20
2022-10-19T19:41:34.390Z,81.30
2022-10-19T19:44:02.384Z,81.20
2022-10-19T19:46:30.532Z,81.20
2022-10-19T19:49:04.689Z,81.40
2022-10-19T19:51:33.779Z,81.40
2022-10-19T19:54:01.751Z,81.40
2022-10-19T19:56:29.874Z,81.50
2022-10-19T19:59:00.043Z,81.50
2022-10-19T20:01:28.447Z,81.60
2022-10-19T20:03:59.150Z,81.60
2022-10-19T20:06:28.607Z,81.80
2022-10-19T20:08:57.316Z,81.80
2022-10-19T20:11:27.300Z,81.90
2022-10-19T20:13:55.595Z,81.90
2022-10-19T20:16:29.223Z,82.00
2022-10-19T20:19:00.955Z,82.00
2022-10-19T20:21:31.793Z,81.90
2022-10-19T20:24:00.130Z,82.00
2022-10-19T20:26:29.534Z,82.00
2022-10-19T20:28:58.273Z,82.00
2022-10-19T20:33:54.574Z,81.70
2022-10-19T20:36:24.749Z,81.50
2022-10-19T20:38:56.089Z,81.30
2022-10-19T20:41:26.260Z,81.10
2022-10-19T20:43:55.194Z,81.10
2022-10-19T20:46:25.188Z,80.80
2022-10-19T20:48:54.701Z,80.90
2022-10-19T20:51:27.624Z,81.10
2022-10-19T20:54:01.297Z,81.10
2022-10-19T20:56:31.716Z,81.00
2022-10-19T20:59:04.473Z,81.00
2022-10-19T21:01:34.694Z,81.00
2022-10-19T21:04:04.732Z,80.90
2022-10-19T21:06:34.435Z,80.80
2022-10-19T21:09:04.112Z,80.90
2022-10-19T21:11:34.121Z,80.80
2022-10-19T21:14:04.582Z,80.90
2022-10-19T21:16:34.003Z,80.90
2022-10-19T21:19:03.879Z,80.50
2022-10-19T21:21:33.791Z,80.60
2022-10-19T21:24:06.233Z,80.70
2022-10-19T21:26:36.453Z,80.60
2022-10-19T21:29:05.554Z,80.30
2022-10-19T21:31:33.529Z,80.50
2022-10-19T21:34:05.069Z,80.70
2022-10-19T21:36:33.099Z,80.80
2022-10-19T21:39:01.258Z,80.90
2022-10-19T21:41:30.936Z,80.80
2022-10-19T21:43:59.196Z,80.60
2022-10-19T21:46:27.512Z,80.60
2022-10-19T21:48:56.738Z,80.60
2022-10-19T21:51:32.959Z,80.60
2022-10-19T21:54:01.475Z,80.80
2022-10-19T21:56:30.800Z,80.80
2022-10-19T21:58:59.087Z,80.90
2022-10-19T22:01:29.478Z,80.90
2022-10-19T22:03:58.301Z,81.20
2022-10-19T22:06:27.918Z,81.20
2022-10-19T22:08:56.064Z,81.10
2022-10-19T22:11:24.634Z,81.00
2022-10-19T22:13:56.694Z,81.00
2022-10-19T22:16:26.008Z,81.10
2022-10-19T22:18:54.613Z,81.20
2022-10-19T22:21:24.241Z,81.10
2022-10-19T22:23:53.512Z,81.00
2022-10-19T22:26:23.429Z,81.00
2022-10-19T22:28:51.747Z,81.00
2022-10-19T22:31:21.312Z,80.90
2022-10-19T22:33:49.643Z,81.10
2022-10-19T22:36:18.388Z,81.30
2022-10-19T22:38:46.365Z,81.40
2022-10-19T22:41:14.264Z,81.40
2022-10-19T22:43:42.170Z,81.40
2022-10-19T22:46:10.041Z,81.50
2022-10-19T22:48:39.423Z,81.40
2022-10-19T22:51:07.562Z,81.40
2022-10-19T22:53:35.476Z,81.30
2022-10-19T22:56:03.439Z,81.40
2022-10-19T22:58:31.406Z,81.40
2022-10-19T23:01:10.905Z,81.30
2022-10-19T23:03:40.530Z,81.30
2022-10-19T23:06:09.779Z,81.10
2022-10-19T23:08:37.956Z,80.90
2022-10-19T23:11:06.191Z,80.80
2022-10-19T23:13:34.150Z,80.90
2022-10-19T23:16:02.384Z,80.90
2022-10-19T23:18:31.969Z,80.80
2022-10-19T23:21:03.289Z,81.20
2022-10-19T23:23:32.363Z,81.10
2022-10-19T23:26:02.021Z,81.20
2022-10-19T23:28:31.009Z,81.30
2022-10-19T23:30:59.578Z,81.20
2022-10-19T23:33:27.589Z,80.90
2022-10-19T23:35:55.477Z,80.90
2022-10-19T23:38:24.748Z,80.90
2022-10-19T23:40:52.637Z,81.00
2022-10-19T23:43:20.601Z,80.80
2022-10-19T23:45:48.569Z,80.80
2022-10-19T23:48:16.630Z,80.80
2022-10-19T23:50:44.664Z,80.70
2022-10-19T23:53:12.688Z,80.50
2022-10-19T23:55:42.014Z,80.30
2022-10-19T23:58:10.360Z,80.20
